Garden City, IA (50102)

5:37 PM CDT on April 30, 2017 (GMT -0500)
Richland Township | | Change Station

Elev 900 ft 42.11 °N, 93.40 °W | Updated 3 minutes ago

Rain
Rain
43.0 °F
Feels Like 38 °F
N
8.3
Wind Variable Wind from NE

Today
High -- | Low -- °F
--% Chance of Precip.
Yesterday
High -- | Low -- °F
Precip. -- in
Pressure 29.57 in
Visibility 7.0 miles
Clouds Overcast 800 ft
Windchill 38 °F
Dew Point 43 °F
Humidity 99%
Rainfall 0.13 in
Snow Depth Not available.
6:10 AM 8:12 PM
Waxing Crescent, 26% visible
METAR KIFA 302235Z AUTO 06016G24KT 7SM -RA OVC008 06/05 A2957 RMK AO2 T00630050
Pressure 29.57 in
Visibility 7.0 miles
Clouds Overcast 800 ft
Windchill 38 °F
Dew Point 43 °F
Humidity 99%
Rainfall 0.13 in
Snow Depth Not available.
6:10 AM 8:12 PM
Waxing Crescent, 26% visible
METAR KIFA 302235Z AUTO 06016G24KT 7SM -RA OVC008 06/05 A2957 RMK AO2 T00630050

Get Severe Weather Alerts

Thanks for signing up!

Be on the lookout for a verification email in your inbox.

You'll start receiving the daily forecast at 8 AM.

×

10-Day Weather Forecast

Almanac

Astronomy

Apr. 30, 2017 Rise Set
Actual Time
Civil Twilight
Nautical Twilight
Astronomical Twilight
Moon
Length of Visible Light
Length of Day
Tomorrow will be .
, % of the Moon is Illuminated

Today's Extremes

State Highs State Lows

Community

WunderPhotos

WunderBlog® & News

Nearby

Air Quality

  Air Quality AQ Index Pollutant
Not available.

Snow Depth

Station Depth Elevation

Earthquake Activity

City Distance Mag. Time & Date
Minimum magnitude displayed is 2.5.

Coastal Water Temperatures

Place Temperature

Stations

Nearby Weather Stations

Station Location Temp. Windchill Dew Point Humidity Wind Precip. Elev Updated Type
                   

Watches & Warnings

There are currently no watches in effect.